createdAt,value
2023-04-15T00:03:53.908Z,66515.66
2023-04-15T00:08:58.153Z,66462.09
2023-04-15T00:14:03.727Z,66425.97
2023-04-15T00:19:07.674Z,66390.97
2023-04-15T00:24:11.766Z,66469.84
2023-04-15T00:29:17.191Z,66402.78
2023-04-15T00:34:21.321Z,66510.13
2023-04-15T00:39:25.270Z,66523.72
2023-04-15T00:44:30.582Z,66480.06
2023-04-15T00:49:34.551Z,66437.16
2023-04-15T00:54:39.108Z,66405.28
2023-04-15T00:59:44.501Z,66239.75
2023-04-15T01:04:49.739Z,66303.59
2023-04-15T01:09:54.129Z,66380.22
2023-04-15T01:15:00.866Z,66377.47
2023-04-15T01:20:05.993Z,66437.84
2023-04-15T01:25:13.312Z,66416.31
2023-04-15T01:30:18.662Z,66408.22
2023-04-15T01:35:24.192Z,66395.88
2023-04-15T01:40:28.785Z,66274.78
2023-04-15T01:45:34.225Z,66209.91
2023-04-15T01:50:41.452Z,66223.84
2023-04-15T01:55:45.753Z,66234.28
2023-04-15T02:00:53.746Z,66271.94
2023-04-15T02:05:57.812Z,66345.50
2023-04-15T02:11:02.351Z,66340.50
2023-04-15T02:16:17.225Z,66305.13
2023-04-15T02:21:21.654Z,66285.81
2023-04-15T02:26:26.182Z,66196.69
2023-04-15T02:31:37.043Z,66176.03
2023-04-15T02:36:41.104Z,66165.69
2023-04-15T02:41:47.751Z,66112.28
2023-04-15T02:46:54.966Z,66208.03
2023-04-15T02:52:00.179Z,66162.94
2023-04-15T02:57:06.873Z,66175.78
2023-04-15T03:02:13.011Z,66132.56
2023-04-15T03:07:17.245Z,66171.59
2023-04-15T03:12:21.656Z,66175.50
2023-04-15T03:17:28.507Z,66211.34
2023-04-15T03:22:33.833Z,66197.47
2023-04-15T03:27:37.884Z,66161.47
2023-04-15T03:32:43.276Z,66165.25
2023-04-15T03:37:49.248Z,66182.22
2023-04-15T03:42:52.985Z,66155.00
2023-04-15T03:48:07.323Z,66156.59
2023-04-15T03:53:20.495Z,66114.28
2023-04-15T03:58:24.545Z,66180.78
2023-04-15T04:03:30.324Z,66260.06
2023-04-15T04:08:34.163Z,66225.19
2023-04-15T04:13:38.259Z,66221.53
2023-04-15T04:18:43.504Z,66310.91
2023-04-15T04:23:47.441Z,66211.88
2023-04-15T04:28:51.695Z,66292.25
2023-04-15T04:33:57.403Z,66234.28
2023-04-15T04:39:01.560Z,66219.91
2023-04-15T04:44:05.833Z,66216.06
2023-04-15T04:49:11.703Z,66301.72
2023-04-15T04:54:15.492Z,66285.00
2023-04-15T04:59:19.679Z,66284.91
2023-04-15T05:04:25.488Z,66213.94
2023-04-15T05:09:32.280Z,66160.34
2023-04-15T05:14:38.727Z,66168.53
2023-04-15T05:19:44.083Z,66152.41
2023-04-15T05:24:48.105Z,66123.81
2023-04-15T05:29:52.134Z,66206.88
2023-04-15T05:34:57.507Z,66211.41
2023-04-15T05:40:01.573Z,66185.78
2023-04-15T05:45:09.149Z,66172.13
2023-04-15T05:50:14.466Z,66207.94
2023-04-15T05:55:18.459Z,66194.63
2023-04-15T06:00:22.495Z,66219.91
2023-04-15T06:05:27.973Z,66231.69
2023-04-15T06:10:36.475Z,66270.34
2023-04-15T06:15:41.255Z,66401.25
2023-04-15T06:20:46.528Z,66321.28
2023-04-15T06:25:50.378Z,66358.75
2023-04-15T06:30:54.740Z,66498.94
2023-04-15T06:36:00.603Z,66452.25
2023-04-15T06:41:05.446Z,66431.88
2023-04-15T06:46:09.562Z,66547.38
2023-04-15T06:51:15.130Z,66633.47
2023-04-15T06:56:19.125Z,66657.50
2023-04-15T07:01:23.354Z,66616.03
2023-04-15T07:06:29.264Z,66562.44
2023-04-15T07:11:33.421Z,66601.28
2023-04-15T07:16:37.523Z,66553.81
2023-04-15T07:21:43.052Z,66628.63
2023-04-15T07:26:47.889Z,66656.03
2023-04-15T07:31:51.888Z,66715.63
2023-04-15T07:36:58.136Z,66657.50
2023-04-15T07:42:02.562Z,66700.63
2023-04-15T07:47:15.490Z,66666.25
2023-04-15T07:52:21.766Z,66682.88
2023-04-15T07:57:26.114Z,66644.75
2023-04-15T08:02:30.700Z,66629.06
2023-04-15T08:07:36.659Z,66654.28
2023-04-15T08:12:40.490Z,66704.41
2023-04-15T08:17:44.752Z,66687.88
2023-04-15T08:22:52.276Z,66650.50
2023-04-15T08:27:57.682Z,66695.19
2023-04-15T08:33:02.379Z,66764.69
2023-04-15T08:38:07.860Z,66787.88
2023-04-15T08:43:14.459Z,66893.44
2023-04-15T08:48:19.289Z,66888.06
2023-04-15T08:53:25.833Z,66849.75
2023-04-15T08:58:30.477Z,66756.66
2023-04-15T09:03:36.074Z,66834.75
2023-04-15T09:08:41.736Z,66854.44
2023-04-15T09:13:49.024Z,66834.06
2023-04-15T09:18:53.217Z,66782.34
2023-04-15T09:24:00.738Z,66682.41
2023-04-15T09:29:09.331Z,66898.31
2023-04-15T09:34:13.669Z,66966.59
2023-04-15T09:39:19.480Z,66911.16
2023-04-15T09:44:24.684Z,66953.22
2023-04-15T09:49:28.807Z,67018.28
2023-04-15T09:54:39.692Z,67051.13
2023-04-15T09:59:43.693Z,66955.97
2023-04-15T10:04:51.047Z,67030.22
2023-04-15T10:09:57.307Z,67013.09
2023-04-15T10:15:06.147Z,67030.34
2023-04-15T10:20:13.083Z,67069.66
2023-04-15T10:25:19.569Z,67098.81
2023-04-15T10:30:24.582Z,67191.69
2023-04-15T10:35:30.794Z,67151.63
2023-04-15T10:40:36.467Z,67069.19
2023-04-15T10:45:46.711Z,66927.34
2023-04-15T10:50:58.008Z,66912.22
2023-04-15T10:56:06.298Z,66861.59
2023-04-15T11:01:10.389Z,66727.47
2023-04-15T11:06:14.468Z,66821.81
2023-04-15T11:11:20.122Z,66940.88
2023-04-15T11:16:24.047Z,66850.75
2023-04-15T11:21:29.317Z,66940.72
2023-04-15T11:26:35.347Z,67017.34
2023-04-15T11:31:39.444Z,67022.34
2023-04-15T11:36:45.032Z,66978.53
2023-04-15T11:41:50.668Z,66891.13
2023-04-15T11:46:56.588Z,67207.34
2023-04-15T11:52:00.808Z,67308.34
2023-04-15T11:57:06.370Z,66997.94
2023-04-15T12:02:14.371Z,67008.66
2023-04-15T12:07:18.812Z,66913.25
2023-04-15T12:12:30.918Z,66794.78
2023-04-15T12:17:51.330Z,66737.22
2023-04-15T12:23:07.248Z,66569.50
2023-04-15T12:28:14.120Z,66343.91
2023-04-15T12:33:18.786Z,66266.06
2023-04-15T12:38:24.523Z,66305.72
2023-04-15T12:43:30.488Z,66342.69
2023-04-15T12:48:34.662Z,66378.53
2023-04-15T12:53:38.782Z,66420.59
2023-04-15T12:58:44.671Z,66601.06
2023-04-15T13:03:50.726Z,66533.91
2023-04-15T13:08:58.829Z,66656.56
2023-04-15T13:14:06.479Z,66547.38
2023-04-15T13:19:11.028Z,66444.22
2023-04-15T13:24:15.053Z,66453.44
2023-04-15T13:29:20.820Z,66417.38
2023-04-15T13:34:25.250Z,66430.72
2023-04-15T13:39:29.652Z,66357.22
2023-04-15T13:44:35.221Z,66311.63
2023-04-15T13:49:39.475Z,66359.94
2023-04-15T13:54:43.593Z,66432.94
2023-04-15T13:59:49.440Z,66389.44
2023-04-15T14:04:53.654Z,66307.34
2023-04-15T14:09:57.896Z,66284.28
2023-04-15T14:15:03.722Z,66250.88
2023-04-15T14:20:09.938Z,66284.44
2023-04-15T14:25:23.186Z,66272.47
2023-04-15T14:30:36.470Z,66262.81
2023-04-15T14:35:40.541Z,66242.00
2023-04-15T14:40:46.062Z,66308.44
2023-04-15T14:45:52.235Z,66268.47
2023-04-15T14:50:56.484Z,66258.47
2023-04-15T14:56:00.656Z,66239.84
2023-04-15T15:01:07.516Z,66312.25
2023-04-15T15:06:11.920Z,66367.44
2023-04-15T15:11:17.116Z,66424.91
2023-04-15T15:16:29.605Z,66321.84
2023-04-15T15:21:33.976Z,66319.22
2023-04-15T15:26:38.809Z,66397.41
2023-04-15T15:31:45.085Z,66441.00
2023-04-15T15:36:49.936Z,66431.88
2023-04-15T15:41:54.676Z,66467.25
2023-04-15T15:47:01.725Z,66416.38
2023-04-15T15:52:07.716Z,66498.94
2023-04-15T15:57:13.240Z,66306.91
2023-04-15T16:02:27.062Z,66316.56
2023-04-15T16:07:40.255Z,66220.53
2023-04-15T16:12:45.592Z,66327.56
2023-04-15T16:17:51.902Z,66202.75
2023-04-15T16:22:58.488Z,66140.16
2023-04-15T16:28:11.569Z,66090.88
2023-04-15T16:33:24.840Z,66175.44
2023-04-15T16:38:29.911Z,66138.38
2023-04-15T16:43:34.285Z,66119.25
2023-04-15T16:48:40.196Z,66127.19
2023-04-15T16:53:49.923Z,66273.09
2023-04-15T16:58:55.037Z,66230.56
2023-04-15T17:04:05.850Z,66178.56
2023-04-15T17:09:10.565Z,66199.47
2023-04-15T17:14:14.814Z,66172.75
2023-04-15T17:19:23.609Z,66244.69
2023-04-15T17:24:29.069Z,66209.81
2023-04-15T17:29:34.254Z,66187.56
2023-04-15T17:34:50.601Z,66115.97
2023-04-15T17:39:55.591Z,66141.66
2023-04-15T17:44:59.938Z,66150.78
2023-04-15T17:50:06.107Z,66174.91
2023-04-15T17:55:10.485Z,66178.56
2023-04-15T18:00:16.798Z,66208.91
2023-04-15T18:05:22.927Z,66189.34
2023-04-15T18:10:27.428Z,66174.91
2023-04-15T18:15:31.808Z,66176.50
2023-04-15T18:20:37.391Z,66180.09
2023-04-15T18:25:47.188Z,66180.97
2023-04-15T18:30:51.616Z,66205.34
2023-04-15T18:35:57.771Z,66156.66
2023-04-15T18:41:02.600Z,66193.09
2023-04-15T18:46:10.233Z,66195.97
2023-04-15T18:51:17.149Z,66207.41
2023-04-15T18:56:21.589Z,66172.03
2023-04-15T19:01:26.590Z,66154.00
2023-04-15T19:06:32.297Z,66164.78
2023-04-15T19:11:36.622Z,66151.75
2023-04-15T19:16:40.852Z,66128.91
2023-04-15T19:21:50.174Z,66207.50
2023-04-15T19:26:54.847Z,66069.38
2023-04-15T19:31:59.440Z,66101.50
2023-04-15T19:37:05.280Z,66138.44
2023-04-15T19:42:10.315Z,66079.09
2023-04-15T19:47:14.560Z,66201.06
2023-04-15T19:52:20.172Z,66131.31
2023-04-15T19:57:24.446Z,66128.91
2023-04-15T20:02:31.604Z,66003.16
2023-04-15T20:07:37.657Z,65973.34
2023-04-15T20:12:50.509Z,65989.59
2023-04-15T20:17:57.661Z,66078.47
2023-04-15T20:23:03.695Z,66141.66
2023-04-15T20:28:07.775Z,66207.06
2023-04-15T20:33:16.989Z,66145.41
2023-04-15T20:38:22.704Z,66122.47
2023-04-15T20:43:26.918Z,66114.34
2023-04-15T20:48:31.298Z,66109.88
2023-04-15T20:53:37.063Z,66096.06
2023-04-15T20:58:41.485Z,66170.97
2023-04-15T21:03:46.441Z,66081.22
2023-04-15T21:08:52.684Z,66167.19
2023-04-15T21:13:56.641Z,66108.28
2023-04-15T21:19:02.387Z,66111.75
2023-04-15T21:24:08.829Z,66029.63
2023-04-15T21:29:13.770Z,66065.06
2023-04-15T21:34:18.826Z,65943.56
2023-04-15T21:39:25.000Z,65945.59
2023-04-15T21:44:29.420Z,66041.41
2023-04-15T21:49:33.989Z,66016.34
2023-04-15T21:54:39.982Z,65994.31
2023-04-15T21:59:44.372Z,66008.41
2023-04-15T22:04:48.706Z,66061.78
2023-04-15T22:09:54.353Z,66024.28
2023-04-15T22:14:58.550Z,66055.34
2023-04-15T22:20:02.768Z,66054.91
2023-04-15T22:25:09.835Z,66082.13
2023-04-15T22:30:14.610Z,66039.72
2023-04-15T22:35:18.949Z,66011.00
2023-04-15T22:40:25.457Z,66029.38
2023-04-15T22:45:29.615Z,66025.44
2023-04-15T22:50:33.852Z,66066.16
2023-04-15T22:55:39.609Z,66080.44
2023-04-15T23:00:43.852Z,66073.72
2023-04-15T23:05:48.056Z,66060.06
2023-04-15T23:10:53.881Z,66063.03
2023-04-15T23:15:58.080Z,66072.03
2023-04-15T23:21:02.206Z,65978.88
2023-04-15T23:26:07.714Z,65879.22
2023-04-15T23:31:12.072Z,65946.78
2023-04-15T23:36:16.352Z,65988.41
2023-04-15T23:41:21.929Z,65977.19
2023-04-15T23:46:26.264Z,66099.34
2023-04-15T23:51:30.399Z,66066.78
2023-04-15T23:56:36.004Z,66048.47
